Time;durP1;ratioP1;P1;durP2;ratioP2;P2;SDS_P1;SDS_P2;PMS_P1;PMS_P2;Temp;Humidity;BMP_temperature;BMP_pressure;BME280_temperature;BME280_humidity;BME280_pressure;Samples;Min_cycle;Max_cycle;Signal;HPM_P1;HPM_P2
2021/05/12 00:01:21;;;;;;;5.32;4.82;;;18.40;65.50;;;;;;10544646;28;20050;-59
2021/05/12 00:06:22;;;;;;;5.70;4.32;;;18.40;65.50;;;;;;10545418;28;20032;-59
2021/05/12 00:11:22;;;;;;;5.60;4.95;;;18.40;65.40;;;;;;10555757;28;20089;-59
2021/05/12 00:16:23;;;;;;;9.25;5.57;;;18.40;65.40;;;;;;10551740;28;20040;-59
2021/05/12 00:21:32;;;;;;;7.88;5.30;;;18.40;65.40;;;;;;10545218;28;20032;-59
2021/05/12 00:26:41;;;;;;;5.85;3.88;;;18.40;65.30;;;;;;10527465;28;20028;-59
2021/05/12 00:31:44;;;;;;;5.80;4.45;;;18.30;65.30;;;;;;10540538;28;20432;-60
2021/05/12 00:36:44;;;;;;;7.93;4.65;;;18.30;65.20;;;;;;10561214;28;20056;-59
2021/05/12 00:41:45;;;;;;;7.10;5.60;;;18.30;65.10;;;;;;10556018;28;20029;-59
2021/05/12 00:46:49;;;;;;;5.95;4.22;;;18.30;65.10;;;;;;10536942;28;20115;-60
2021/05/12 00:51:49;;;;;;;6.93;4.28;;;18.30;65.10;;;;;;10543751;28;20360;-59
2021/05/12 00:56:51;;;;;;;6.93;4.65;;;18.30;65.00;;;;;;10543940;28;20059;-59
2021/05/12 01:01:52;;;;;;;6.55;4.63;;;18.30;65.00;;;;;;10556420;28;20034;-60
2021/05/12 01:06:52;;;;;;;5.45;4.25;;;18.30;64.90;;;;;;10548324;28;20562;-59
2021/05/12 01:11:53;;;;;;;6.15;4.45;;;18.30;64.80;;;;;;10542321;28;20551;-60
2021/05/12 01:16:55;;;;;;;7.32;4.88;;;18.30;64.80;;;;;;10543279;28;20046;-59
2021/05/12 01:21:56;;;;;;;4.82;3.92;;;18.30;64.70;;;;;;10571011;28;20023;-60
2021/05/12 01:26:57;;;;;;;8.38;4.65;;;18.20;64.50;;;;;;10545386;28;20016;-60
2021/05/12 01:31:57;;;;;;;6.63;4.15;;;18.20;64.50;;;;;;10549293;28;20032;-59
2021/05/12 01:36:58;;;;;;;6.00;3.85;;;18.20;64.30;;;;;;10558313;28;20443;-60
2021/05/12 01:42:00;;;;;;;6.40;4.70;;;18.20;64.30;;;;;;10541907;28;20046;-59
2021/05/12 01:47:00;;;;;;;5.50;3.88;;;18.20;64.30;;;;;;10541274;28;20060;-60
2021/05/12 01:52:01;;;;;;;6.32;3.63;;;18.20;64.20;;;;;;10541409;28;20028;-60
2021/05/12 01:57:02;;;;;;;5.85;3.90;;;18.20;64.10;;;;;;10541382;28;20044;-60
2021/05/12 02:02:03;;;;;;;5.10;3.90;;;18.20;64.10;;;;;;10555347;28;20110;-59
2021/05/12 02:07:03;;;;;;;7.10;4.22;;;18.20;64.00;;;;;;10556194;28;20036;-59
2021/05/12 02:12:05;;;;;;;8.00;4.57;;;18.20;64.00;;;;;;10546615;28;20113;-59
2021/05/12 02:17:05;;;;;;;6.50;4.32;;;18.20;64.00;;;;;;10560609;28;20034;-59
2021/05/12 02:22:06;;;;;;;8.55;4.82;;;18.20;64.00;;;;;;10546632;28;20391;-59
2021/05/12 02:27:07;;;;;;;5.20;4.30;;;18.20;64.00;;;;;;10544809;28;20031;-60
2021/05/12 02:32:07;;;;;;;7.70;5.22;;;18.10;63.80;;;;;;10549950;28;20054;-59
2021/05/12 02:37:08;;;;;;;6.10;4.20;;;18.10;63.80;;;;;;10538386;28;20050;-59
2021/05/12 02:42:09;;;;;;;7.53;4.95;;;18.10;63.80;;;;;;10539462;28;20047;-59
2021/05/12 02:47:10;;;;;;;8.40;4.32;;;18.10;63.70;;;;;;10539400;28;20024;-59
2021/05/12 02:52:11;;;;;;;6.35;5.07;;;18.10;63.60;;;;;;10539214;28;20020;-59
2021/05/12 02:57:12;;;;;;;5.35;3.58;;;18.10;63.70;;;;;;10539520;28;20027;-59
2021/05/12 03:02:13;;;;;;;4.88;3.70;;;18.10;63.90;;;;;;10555090;28;20651;-59
2021/05/12 03:07:14;;;;;;;4.50;3.25;;;18.10;63.90;;;;;;10540759;28;20089;-59
2021/05/12 03:12:14;;;;;;;10.38;5.03;;;18.10;63.80;;;;;;10538845;28;20016;-59
2021/05/12 03:17:15;;;;;;;5.53;4.45;;;18.00;63.70;;;;;;10556251;28;20534;-59
2021/05/12 03:22:16;;;;;;;7.15;4.60;;;18.00;63.60;;;;;;10555528;28;20036;-59
2021/05/12 03:27:17;;;;;;;3.95;3.17;;;18.00;63.60;;;;;;10553754;28;20032;-59
2021/05/12 03:32:18;;;;;;;6.22;3.83;;;18.00;63.70;;;;;;10543067;28;20379;-59
2021/05/12 03:37:19;;;;;;;5.05;2.83;;;18.10;63.70;;;;;;10573979;28;20031;-59
2021/05/12 03:42:20;;;;;;;5.00;3.33;;;18.10;63.60;;;;;;10576439;28;20471;-59
2021/05/12 03:47:21;;;;;;;5.57;3.50;;;18.10;63.60;;;;;;10550750;28;20469;-60
2021/05/12 03:52:21;;;;;;;4.57;3.92;;;18.00;63.50;;;;;;10543044;28;20028;-59
2021/05/12 03:57:22;;;;;;;5.60;4.32;;;18.00;63.40;;;;;;10548217;28;20039;-60
2021/05/12 04:02:23;;;;;;;6.03;3.97;;;18.00;63.40;;;;;;10571054;28;20391;-59
2021/05/12 04:07:24;;;;;;;6.45;4.43;;;18.00;63.40;;;;;;10570144;28;20114;-59
2021/05/12 04:12:25;;;;;;;6.38;4.00;;;18.00;63.40;;;;;;10556375;28;20081;-59
2021/05/12 04:17:26;;;;;;;7.95;4.80;;;18.00;63.30;;;;;;10567683;28;20085;-59
2021/05/12 04:22:27;;;;;;;6.45;4.47;;;18.00;63.40;;;;;;10555998;28;20054;-60
2021/05/12 04:27:28;;;;;;;6.43;4.10;;;18.00;63.40;;;;;;10555424;28;20059;-59
2021/05/12 04:32:29;;;;;;;7.07;4.50;;;18.00;63.40;;;;;;10568659;28;20027;-59
2021/05/12 04:37:29;;;;;;;6.90;4.05;;;18.00;63.30;;;;;;10554406;28;20135;-59
2021/05/12 04:42:30;;;;;;;5.50;4.00;;;18.00;63.30;;;;;;10548139;28;20034;-59
2021/05/12 04:47:31;;;;;;;5.72;4.05;;;18.00;63.20;;;;;;10573915;28;20054;-59
2021/05/12 04:52:32;;;;;;;6.38;3.70;;;18.00;63.20;;;;;;10544002;28;20028;-59
2021/05/12 04:57:32;;;;;;;5.13;3.85;;;18.00;63.20;;;;;;10543654;28;20081;-59
2021/05/12 05:02:33;;;;;;;8.55;4.50;;;18.00;63.10;;;;;;10525399;28;20123;-62
2021/05/12 05:07:34;;;;;;;6.07;3.55;;;18.00;63.10;;;;;;10550373;28;20031;-63
2021/05/12 05:12:34;;;;;;;7.97;4.43;;;18.00;63.20;;;;;;10543479;28;20098;-59
2021/05/12 05:17:35;;;;;;;8.23;4.28;;;18.00;64.00;;;;;;10542715;28;20040;-63
2021/05/12 05:22:36;;;;;;;7.53;4.75;;;18.00;64.70;;;;;;10557927;28;20098;-57
2021/05/12 05:27:37;;;;;;;12.57;4.70;;;18.00;65.10;;;;;;10563838;28;20091;-58
2021/05/12 05:32:38;;;;;;;10.73;4.75;;;18.10;65.50;;;;;;10566883;28;20373;-58
2021/05/12 05:37:38;;;;;;;7.50;3.88;;;18.10;65.60;;;;;;10552161;28;20508;-60
2021/05/12 05:42:39;;;;;;;9.48;4.20;;;18.10;65.60;;;;;;10561105;28;20126;-63
2021/05/12 05:47:40;;;;;;;8.82;3.80;;;18.10;65.60;;;;;;10555058;28;20042;-62
2021/05/12 05:52:40;;;;;;;12.43;4.22;;;18.10;65.40;;;;;;10539215;28;20044;-60
2021/05/12 05:57:41;;;;;;;15.65;4.68;;;18.10;65.50;;;;;;10560938;28;20023;-60
2021/05/12 06:02:42;;;;;;;9.85;4.70;;;18.10;65.70;;;;;;10561442;28;20024;-59
2021/05/12 06:07:43;;;;;;;15.45;5.20;;;18.10;65.80;;;;;;10566577;28;20028;-60
2021/05/12 06:12:43;;;;;;;6.63;3.83;;;18.10;65.80;;;;;;10567109;28;20042;-58
2021/05/12 06:17:44;;;;;;;11.73;3.85;;;18.10;65.50;;;;;;10541055;28;20110;-59
2021/05/12 06:22:45;;;;;;;6.95;2.92;;;18.10;65.30;;;;;;10562931;28;20114;-59
2021/05/12 06:27:46;;;;;;;10.20;3.78;;;18.00;64.90;;;;;;10549691;28;20032;-59
2021/05/12 06:32:47;;;;;;;9.90;5.05;;;18.00;64.90;;;;;;10564900;28;20114;-59
2021/05/12 06:37:48;;;;;;;5.22;2.90;;;18.00;64.80;;;;;;10538270;28;20120;-57
2021/05/12 06:42:49;;;;;;;8.45;3.70;;;18.00;64.80;;;;;;10537436;28;20492;-59
2021/05/12 06:47:54;;;;;;;7.80;4.40;;;18.00;64.80;;;;;;10537387;28;20046;-59
2021/05/12 06:52:56;;;;;;;11.00;4.47;;;18.00;64.90;;;;;;10541409;28;20510;-59
2021/05/12 06:57:57;;;;;;;9.93;3.63;;;18.00;64.90;;;;;;10557370;28;20040;-59
2021/05/12 07:02:57;;;;;;;8.93;3.45;;;18.00;64.80;;;;;;10573410;28;20046;-60
2021/05/12 07:07:58;;;;;;;5.78;3.40;;;18.00;64.70;;;;;;10543213;28;20085;-59
2021/05/12 07:12:59;;;;;;;7.53;3.88;;;18.00;64.80;;;;;;10580638;28;20431;-59
2021/05/12 07:18:00;;;;;;;5.95;3.63;;;18.00;64.90;;;;;;10578478;28;20035;-59
2021/05/12 07:23:09;;;;;;;4.57;3.00;;;18.00;64.90;;;;;;10540706;28;20114;-59
2021/05/12 07:28:10;;;;;;;6.97;3.22;;;18.00;64.80;;;;;;10558505;28;20111;-59
2021/05/12 07:33:11;;;;;;;5.80;2.60;;;18.00;64.80;;;;;;10542154;28;20552;-59
2021/05/12 07:38:11;;;;;;;5.22;3.15;;;18.00;64.90;;;;;;10552734;28;20044;-59
2021/05/12 07:43:13;;;;;;;4.90;2.70;;;18.00;64.80;;;;;;10577512;28;20039;-59
2021/05/12 07:48:14;;;;;;;6.35;2.58;;;18.00;64.80;;;;;;10538500;28;20080;-64
2021/05/12 07:53:14;;;;;;;7.50;2.55;;;18.00;64.70;;;;;;10567679;28;20506;-63
2021/05/12 07:58:16;;;;;;;8.15;2.80;;;18.00;64.70;;;;;;10538026;28;20095;-62
2021/05/12 08:03:17;;;;;;;14.75;3.33;;;18.00;64.70;;;;;;10539798;28;20789;-60
2021/05/12 08:08:17;;;;;;;8.27;2.78;;;18.00;65.00;;;;;;10568152;28;20027;-61
2021/05/12 08:13:18;;;;;;;6.95;2.95;;;18.10;65.00;;;;;;10562913;28;20438;-60
2021/05/12 08:18:19;;;;;;;14.20;3.45;;;18.10;65.10;;;;;;10558792;28;20032;-62
2021/05/12 08:23:20;;;;;;;8.82;2.60;;;18.10;65.20;;;;;;10562649;28;20059;-58
2021/05/12 08:28:22;;;;;;;10.13;2.90;;;18.20;65.30;;;;;;10563356;28;20391;-61
2021/05/12 08:33:23;;;;;;;11.10;3.70;;;18.20;65.30;;;;;;10550227;28;20049;-60
2021/05/12 08:38:25;;;;;;;12.98;2.95;;;18.20;65.40;;;;;;10557556;28;20130;-61
2021/05/12 08:43:27;;;;;;;8.73;2.58;;;18.20;65.30;;;;;;10545245;28;20447;-61
2021/05/12 08:48:29;;;;;;;9.93;3.17;;;18.20;65.40;;;;;;10552266;28;20036;-61
2021/05/12 08:53:31;;;;;;;11.98;3.15;;;18.20;65.40;;;;;;10527097;28;20117;-62
2021/05/12 08:58:33;;;;;;;17.23;3.42;;;18.20;65.20;;;;;;10546779;28;20032;-61
2021/05/12 09:03:34;;;;;;;15.90;2.95;;;18.20;65.30;;;;;;10554420;28;20068;-60
2021/05/12 09:08:35;;;;;;;10.90;3.35;;;18.20;65.40;;;;;;10555459;28;20658;-58
2021/05/12 09:13:41;;;;;;;13.48;3.13;;;18.30;66.40;;;;;;10555714;28;20035;-57
2021/05/12 09:18:42;;;;;;;19.27;3.33;;;18.30;68.80;;;;;;10548171;28;20538;-63
2021/05/12 09:23:44;;;;;;;12.15;3.10;;;18.40;69.70;;;;;;10543485;28;20051;-63
2021/05/12 09:28:44;;;;;;;12.80;3.40;;;18.50;69.90;;;;;;10552207;28;20019;-60
2021/05/12 09:33:48;;;;;;;11.90;3.80;;;18.60;71.40;;;;;;10543829;28;20115;-62
2021/05/12 09:38:55;;;;;;;8.98;3.33;;;18.60;70.90;;;;;;10546698;28;20100;-61
2021/05/12 09:43:55;;;;;;;9.00;4.25;;;18.70;69.30;;;;;;10546905;28;20107;-61
2021/05/12 09:48:59;;;;;;;5.97;3.05;;;18.70;69.10;;;;;;10549116;28;20023;-61
2021/05/12 09:54:21;;;;;;;5.88;3.03;;;18.70;69.10;;;;;;10548369;28;20050;-59
2021/05/12 09:59:25;;;;;;;15.00;3.22;;;18.70;68.30;;;;;;10565024;28;20047;-58
2021/05/12 10:04:39;;;;;;;11.48;3.58;;;18.70;68.20;;;;;;10542013;28;20551;-60
2021/05/12 10:09:42;;;;;;;6.72;2.75;;;18.70;68.30;;;;;;10554043;28;20032;-60
2021/05/12 10:14:50;;;;;;;8.43;2.35;;;18.70;67.00;;;;;;10540587;28;20032;-58
2021/05/12 10:19:51;;;;;;;8.10;2.42;;;18.60;66.90;;;;;;10560745;28;20079;-60
2021/05/12 10:24:53;;;;;;;8.82;1.80;;;18.60;66.80;;;;;;10564669;28;20031;-59
2021/05/12 10:29:56;;;;;;;5.32;2.20;;;18.60;66.30;;;;;;10546546;28;20064;-59
2021/05/12 10:35:11;;;;;;;5.88;1.80;;;18.60;66.30;;;;;;10521745;28;20475;-59
2021/05/12 10:40:24;;;;;;;13.48;2.90;;;18.50;66.60;;;;;;10549901;28;20502;-58
2021/05/12 10:51:07;;;;;;;12.57;2.85;;;18.70;66.00;;;;;;10540116;28;20067;-58
2021/05/12 10:56:09;;;;;;;6.15;2.78;;;18.60;66.70;;;;;;10556596;28;20061;-57
2021/05/12 11:01:11;;;;;;;12.23;2.58;;;18.70;67.20;;;;;;10521481;28;20059;-57
2021/05/12 11:06:12;;;;;;;8.70;2.75;;;18.70;67.20;;;;;;10521270;28;20726;-57
2021/05/12 11:11:16;;;;;;;12.05;2.85;;;18.70;67.50;;;;;;10538881;28;20036;-58
2021/05/12 11:16:22;;;;;;;4.70;1.83;;;18.70;68.20;;;;;;10558626;28;20031;-59
2021/05/12 11:21:36;;;;;;;9.82;2.42;;;18.70;66.10;;;;;;10538624;28;20036;-59
2021/05/12 11:27:10;;;;;;;7.47;1.90;;;18.80;66.30;;;;;;10539249;28;20036;-57
2021/05/12 11:32:08;;;;;;;11.10;1.60;;;18.70;66.30;;;;;;10544996;28;20040;-58
2021/05/12 11:37:25;;;;;;;8.75;2.03;;;18.90;65.80;;;;;;10542093;28;20403;-58
2021/05/12 11:42:34;;;;;;;7.07;2.40;;;18.80;65.90;;;;;;10538658;28;20028;-58
2021/05/12 11:47:44;;;;;;;9.13;2.10;;;18.80;66.00;;;;;;10576479;28;20388;-58
2021/05/12 11:52:45;;;;;;;;;;;18.80;65.80;;;;;;10567740;28;20032;-57
2021/05/12 11:57:46;;;;;;;10.30;2.05;;;18.80;65.60;;;;;;10547996;28;20004;-58
2021/05/12 12:03:04;;;;;;;6.88;2.10;;;18.80;65.60;;;;;;10570880;28;20086;-58
2021/05/12 12:08:16;;;;;;;8.57;2.10;;;18.90;65.40;;;;;;10543466;28;20024;-58
2021/05/12 12:13:17;;;;;;;5.18;1.67;;;18.90;65.20;;;;;;10544227;28;20427;-57
2021/05/12 12:18:39;;;;;;;5.95;1.85;;;18.90;65.20;;;;;;10567656;28;20032;-58
2021/05/12 12:23:42;;;;;;;5.47;1.35;;;18.90;65.10;;;;;;10545160;28;20119;-58
2021/05/12 12:28:48;;;;;;;7.72;1.90;;;18.90;64.80;;;;;;10578728;28;20056;-58
2021/05/12 12:34:23;;;;;;;6.93;1.80;;;18.90;64.80;;;;;;10552394;28;20040;-58
2021/05/12 12:39:45;;;;;;;8.27;3.05;;;19.00;64.80;;;;;;10548365;28;20434;-58
2021/05/12 12:44:46;;;;;;;5.38;2.10;;;19.00;64.60;;;;;;10548463;28;20039;-58
2021/05/12 12:50:04;;;;;;;8.93;1.67;;;18.90;64.40;;;;;;10556557;28;20028;-58
2021/05/12 12:55:15;;;;;;;7.65;1.60;;;18.90;64.50;;;;;;10544282;28;20024;-59
2021/05/12 13:00:25;;;;;;;2.80;1.05;;;19.00;64.50;;;;;;10543442;28;20118;-58
2021/05/12 13:05:34;;;;;;;4.53;1.25;;;19.00;64.40;;;;;;10568093;28;20403;-59
2021/05/12 13:10:39;;;;;;;6.35;1.20;;;19.00;64.40;;;;;;10524901;28;20047;-58
2021/05/12 13:15:40;;;;;;;2.85;1.20;;;19.00;64.30;;;;;;10543495;28;20024;-58
2021/05/12 13:20:42;;;;;;;4.43;1.38;;;19.00;64.00;;;;;;10542534;28;20056;-58
2021/05/12 13:25:53;;;;;;;4.65;1.40;;;19.10;64.20;;;;;;10554961;28;20408;-57
2021/05/12 13:30:56;;;;;;;4.30;1.35;;;19.10;64.10;;;;;;10544836;28;20024;-58
2021/05/12 13:35:58;;;;;;;5.15;1.40;;;19.10;64.10;;;;;;10559303;28;20035;-58
2021/05/12 13:40:59;;;;;;;6.00;1.70;;;19.20;63.90;;;;;;10542152;28;20068;-58
2021/05/12 13:45:59;;;;;;;2.75;1.17;;;19.20;63.80;;;;;;10556247;28;20028;-58
2021/05/12 13:51:00;;;;;;;5.28;1.70;;;19.20;63.80;;;;;;10543565;28;20069;-58
2021/05/12 13:56:38;;;;;;;4.40;1.90;;;19.20;63.60;;;;;;10523591;28;20127;-57
2021/05/12 14:01:51;;;;;;;5.03;1.27;;;19.20;63.50;;;;;;10538062;28;20032;-58
2021/05/12 14:06:52;;;;;;;4.93;1.33;;;19.20;63.60;;;;;;10552162;28;20032;-58
2021/05/12 14:11:58;;;;;;;3.13;1.00;;;19.20;63.50;;;;;;10541120;28;20468;-58
2021/05/12 14:17:06;;;;;;;3.90;1.23;;;19.20;63.60;;;;;;10540535;28;20032;-58
2021/05/12 14:22:08;;;;;;;4.28;1.70;;;19.20;63.60;;;;;;10552830;28;20126;-58
2021/05/12 14:27:09;;;;;;;4.18;0.98;;;19.20;63.60;;;;;;10578718;28;20118;-58
2021/05/12 14:32:11;;;;;;;2.03;1.08;;;19.20;63.60;;;;;;10550750;28;20020;-58
2021/05/12 14:37:15;;;;;;;3.70;1.73;;;19.20;63.50;;;;;;10539461;28;20052;-59
2021/05/12 14:42:16;;;;;;;3.25;1.30;;;19.20;63.50;;;;;;10562700;28;20475;-58
2021/05/12 14:47:16;;;;;;;5.32;1.50;;;19.20;63.40;;;;;;10570779;28;20031;-57
2021/05/12 14:57:55;;;;;;;;;;;19.20;62.60;;;;;;10552004;28;20089;-58
2021/05/12 15:08:14;;;;;;;4.05;1.90;;;19.20;62.30;;;;;;10539518;28;20400;-58
2021/05/12 15:13:15;;;;;;;6.05;1.83;;;19.20;61.90;;;;;;10553357;28;20034;-59
2021/05/12 15:18:15;;;;;;;7.10;1.67;;;19.20;62.20;;;;;;10538672;28;20563;-58
2021/05/12 15:23:16;;;;;;;5.13;1.27;;;19.30;62.10;;;;;;10538758;28;20115;-58
2021/05/12 15:28:17;;;;;;;6.57;2.15;;;19.20;62.20;;;;;;10563096;28;20024;-57
2021/05/12 15:33:18;;;;;;;4.57;2.10;;;19.20;61.90;;;;;;10561110;28;20023;-58
2021/05/12 15:38:19;;;;;;;5.53;2.00;;;19.20;61.70;;;;;;10564959;28;20101;-59
2021/05/12 15:43:20;;;;;;;5.45;1.42;;;19.20;61.80;;;;;;10546745;28;20125;-59
2021/05/12 15:48:22;;;;;;;6.13;1.45;;;19.20;61.70;;;;;;10562565;28;20160;-59
2021/05/12 15:53:25;;;;;;;6.85;1.65;;;19.20;61.50;;;;;;10546600;28;20027;-58
2021/05/12 15:58:26;;;;;;;9.35;2.35;;;19.20;61.10;;;;;;10566443;28;20037;-59
2021/05/12 16:03:27;;;;;;;5.75;2.65;;;19.20;59.50;;;;;;10534535;28;20030;-59
2021/05/12 16:08:30;;;;;;;9.82;2.10;;;19.10;58.10;;;;;;10572413;28;20053;-58
2021/05/12 16:13:30;;;;;;;21.52;4.18;;;19.10;56.50;;;;;;10545764;28;20384;-56
2021/05/12 16:18:31;;;;;;;17.23;3.70;;;19.10;56.10;;;;;;10545225;28;20028;-55
2021/05/12 16:23:32;;;;;;;15.70;3.60;;;19.00;55.80;;;;;;10554535;28;20102;-55
2021/05/12 16:28:33;;;;;;;15.43;4.35;;;19.10;57.40;;;;;;10574066;28;20036;-53
2021/05/12 16:33:34;;;;;;;15.07;3.33;;;19.10;57.60;;;;;;10576569;28;20066;-56
2021/05/12 16:38:35;;;;;;;17.05;3.75;;;19.10;57.60;;;;;;10544259;28;20061;-55
2021/05/12 16:43:36;;;;;;;22.80;4.38;;;19.10;57.30;;;;;;10544608;28;20468;-57
2021/05/12 16:48:37;;;;;;;11.27;3.75;;;19.10;57.90;;;;;;10558970;28;20040;-54
2021/05/12 16:53:38;;;;;;;17.98;3.58;;;19.10;57.60;;;;;;10544488;28;20484;-56
2021/05/12 16:58:39;;;;;;;19.98;4.47;;;19.10;58.10;;;;;;10543653;28;20027;-57
2021/05/12 17:03:39;;;;;;;19.70;4.65;;;19.10;58.40;;;;;;10549695;28;20138;-55
2021/05/12 17:08:40;;;;;;;16.30;3.80;;;19.10;58.50;;;;;;10570728;28;20087;-56
2021/05/12 17:13:41;;;;;;;13.88;2.83;;;19.00;59.40;;;;;;10552379;28;20040;-56
2021/05/12 17:18:42;;;;;;;12.60;3.63;;;19.10;59.10;;;;;;10542755;28;20082;-60
2021/05/12 17:23:43;;;;;;;13.00;3.17;;;19.00;59.20;;;;;;10548146;28;20440;-59
2021/05/12 17:28:45;;;;;;;11.50;3.50;;;19.00;59.40;;;;;;10564694;28;20102;-57
2021/05/12 17:33:47;;;;;;;15.90;3.88;;;19.00;59.50;;;;;;10576573;28;20142;-61
2021/05/12 17:38:47;;;;;;;9.93;3.15;;;19.00;59.70;;;;;;10580610;28;20051;-60
2021/05/12 17:43:49;;;;;;;12.82;3.83;;;19.00;59.70;;;;;;10543561;28;20430;-58
2021/05/12 17:48:50;;;;;;;10.68;3.60;;;19.00;60.20;;;;;;10568928;28;20047;-56
2021/05/12 17:53:54;;;;;;;11.82;3.88;;;19.00;60.30;;;;;;10543155;28;20507;-56
2021/05/12 17:58:56;;;;;;;14.02;3.50;;;19.00;60.50;;;;;;10536439;28;20054;-56
2021/05/12 18:03:58;;;;;;;12.38;2.67;;;19.00;60.90;;;;;;10568197;28;20447;-58
2021/05/12 18:08:59;;;;;;;9.60;3.03;;;19.10;61.10;;;;;;10548720;28;20036;-59
2021/05/12 18:14:49;;;;;;;6.53;2.55;;;19.10;61.60;;;;;;10525111;28;20019;-59
2021/05/12 18:19:30;;;;;;;12.57;3.97;;;19.10;61.70;;;;;;10562339;28;20036;-58
2021/05/12 18:24:31;;;;;;;7.65;3.35;;;19.10;61.70;;;;;;10541261;28;20369;-58
2021/05/12 18:29:35;;;;;;;9.57;3.03;;;19.20;62.00;;;;;;10559236;28;20016;-57
2021/05/12 18:34:50;;;;;;;12.77;3.53;;;19.20;62.10;;;;;;10563786;28;20031;-56
2021/05/12 18:39:58;;;;;;;12.98;3.55;;;19.30;62.20;;;;;;10562189;28;20051;-57
2021/05/12 18:45:08;;;;;;;8.38;3.25;;;19.30;62.40;;;;;;10556134;28;20448;-57
2021/05/12 18:50:10;;;;;;;6.18;3.30;;;19.40;62.30;;;;;;10556719;28;20153;-59
2021/05/12 18:55:11;;;;;;;6.53;3.15;;;19.40;63.10;;;;;;10573442;28;20054;-57
2021/05/12 19:00:14;;;;;;;6.97;3.10;;;19.40;62.40;;;;;;10570404;28;20040;-57
2021/05/12 19:05:15;;;;;;;7.95;3.17;;;19.40;62.50;;;;;;10556652;28;20107;-57
2021/05/12 19:10:25;;;;;;;8.60;3.10;;;19.40;62.50;;;;;;10567475;28;20019;-58
2021/05/12 19:15:31;;;;;;;11.23;3.22;;;19.40;62.60;;;;;;10570275;28;20077;-58
2021/05/12 19:20:44;;;;;;;5.82;3.20;;;19.40;62.90;;;;;;10574800;28;20032;-58
2021/05/12 19:41:39;;;;;;;6.13;3.00;;;19.30;63.30;;;;;;10554482;28;20060;-58
2021/05/12 19:46:39;;;;;;;7.50;3.00;;;19.30;63.40;;;;;;10536253;28;20036;-58
2021/05/12 19:51:40;;;;;;;6.03;2.58;;;19.30;63.30;;;;;;10543313;28;20028;-58
2021/05/12 20:02:03;;;;;;;4.63;2.03;;;19.30;63.20;;;;;;10519996;28;20435;-58
2021/05/12 20:07:18;;;;;;;3.10;2.10;;;19.20;63.10;;;;;;10560176;28;20131;-58
2021/05/12 20:17:22;;;;;;;7.45;2.55;;;19.20;63.00;;;;;;10565959;28;20039;-58
2021/05/12 20:22:23;;;;;;;5.10;2.63;;;19.20;63.00;;;;;;10567508;28;20028;-58
2021/05/12 20:27:29;;;;;;;6.78;2.00;;;19.10;62.90;;;;;;10567747;28;20040;-58
2021/05/12 20:32:39;;;;;;;5.07;3.00;;;19.20;62.90;;;;;;10557197;28;20383;-58
2021/05/12 20:37:40;;;;;;;4.13;2.08;;;19.10;62.80;;;;;;10547601;28;20048;-59
2021/05/12 20:42:41;;;;;;;5.13;1.80;;;19.20;62.80;;;;;;10544865;28;20032;-58
2021/05/12 20:47:42;;;;;;;5.15;2.03;;;19.10;62.70;;;;;;10570410;28;20034;-58
2021/05/12 20:52:43;;;;;;;5.70;2.10;;;19.10;62.70;;;;;;10559093;28;20115;-58
2021/05/12 20:57:44;;;;;;;3.85;2.00;;;19.10;62.60;;;;;;10555408;28;20032;-58
2021/05/12 21:02:45;;;;;;;4.93;1.63;;;19.10;62.60;;;;;;10543927;28;20074;-58
2021/05/12 21:07:46;;;;;;;4.10;2.15;;;19.00;62.50;;;;;;10548504;28;20028;-58
2021/05/12 21:12:46;;;;;;;2.92;1.88;;;19.00;62.40;;;;;;10525352;28;20494;-58
2021/05/12 21:17:47;;;;;;;3.47;2.10;;;19.00;62.40;;;;;;10542996;28;20032;-59
2021/05/12 21:28:08;;;;;;;7.30;2.00;;;19.00;62.30;;;;;;10560691;28;20032;-58
2021/05/12 21:33:09;;;;;;;3.92;2.00;;;19.00;62.30;;;;;;10558928;28;20028;-59
2021/05/12 21:38:10;;;;;;;4.95;2.20;;;19.00;62.30;;;;;;10541986;28;20040;-59
2021/05/12 21:43:11;;;;;;;5.53;2.20;;;19.00;62.30;;;;;;10544258;28;20032;-59
2021/05/12 21:48:12;;;;;;;5.10;2.65;;;19.00;62.20;;;;;;10565051;28;20460;-59
2021/05/12 21:53:13;;;;;;;4.90;2.03;;;18.90;62.20;;;;;;10541889;28;20039;-59
2021/05/12 21:58:15;;;;;;;5.32;2.33;;;19.00;62.30;;;;;;10541349;28;20032;-59
2021/05/12 22:03:21;;;;;;;2.80;1.88;;;18.90;62.30;;;;;;10542417;28;20032;-59
2021/05/12 22:24:21;;;;;;;3.67;1.50;;;18.90;62.20;;;;;;10541452;28;20044;-59
2021/05/12 22:34:41;;;;;;;4.22;1.60;;;18.90;62.20;;;;;;10538322;28;20036;-58
2021/05/12 22:39:42;;;;;;;3.92;1.80;;;18.90;62.20;;;;;;10553401;28;20048;-58
2021/05/12 22:44:42;;;;;;;2.85;1.73;;;18.90;62.10;;;;;;10543390;28;20031;-59
2021/05/12 22:49:43;;;;;;;2.75;1.77;;;18.90;62.10;;;;;;10551824;28;20111;-58
2021/05/12 22:54:51;;;;;;;2.42;1.50;;;18.90;62.00;;;;;;10539832;28;20157;-58
2021/05/12 22:59:51;;;;;;;2.83;1.80;;;18.90;61.90;;;;;;10559879;28;20035;-59
2021/05/12 23:04:52;;;;;;;3.42;1.60;;;18.90;61.90;;;;;;10544906;28;20067;-59
2021/05/12 23:09:53;;;;;;;5.30;1.80;;;18.80;61.80;;;;;;10539149;28;20096;-58
2021/05/12 23:14:54;;;;;;;3.80;1.92;;;18.80;61.70;;;;;;10546607;28;20119;-59
2021/05/12 23:19:55;;;;;;;2.70;1.75;;;18.80;61.70;;;;;;10538723;28;20036;-58
2021/05/12 23:24:57;;;;;;;7.03;2.05;;;18.80;61.60;;;;;;10565263;28;20035;-57
2021/05/12 23:29:58;;;;;;;3.50;1.83;;;18.80;61.60;;;;;;10549716;28;20024;-59
2021/05/12 23:35:00;;;;;;;5.10;2.30;;;18.80;61.50;;;;;;10545777;28;20047;-58
2021/05/12 23:40:02;;;;;;;6.15;1.65;;;18.80;61.50;;;;;;10538002;28;20044;-58
2021/05/12 23:45:05;;;;;;;3.67;1.55;;;18.70;61.40;;;;;;10538688;28;20119;-59
2021/05/12 23:50:07;;;;;;;2.88;1.77;;;18.80;61.50;;;;;;10563757;28;20026;-59
2021/05/12 23:55:09;;;;;;;3.95;1.90;;;18.80;61.40;;;;;;10534847;28;20036;-59
